createdAt,value
2022-11-09T00:01:32.869Z,13.20
2022-11-09T00:06:30.501Z,13.26
2022-11-09T00:11:27.001Z,13.26
2022-11-09T00:16:23.506Z,13.20
2022-11-09T00:21:21.827Z,13.26
2022-11-09T00:26:19.970Z,13.28
2022-11-09T00:31:20.715Z,13.34
2022-11-09T00:36:19.075Z,13.35
2022-11-09T00:41:15.458Z,13.41
2022-11-09T00:46:12.288Z,13.49
2022-11-09T00:51:09.362Z,13.56
2022-11-09T00:56:11.928Z,13.58
2022-11-09T01:01:11.991Z,13.59
2022-11-09T01:06:13.771Z,13.65
2022-11-09T01:11:10.464Z,13.68
2022-11-09T01:16:13.365Z,13.72
2022-11-09T01:21:11.821Z,13.70
2022-11-09T01:26:10.213Z,13.74
2022-11-09T01:31:11.388Z,13.81
2022-11-09T01:36:10.498Z,13.81
2022-11-09T01:41:08.056Z,13.81
2022-11-09T01:46:14.170Z,13.84
2022-11-09T01:51:16.236Z,13.88
2022-11-09T01:56:14.735Z,13.94
2022-11-09T02:01:13.148Z,13.92
2022-11-09T02:06:13.616Z,13.82
2022-11-09T02:11:12.521Z,13.81
2022-11-09T02:16:11.115Z,13.80
2022-11-09T02:21:07.481Z,13.86
2022-11-09T02:26:10.059Z,13.89
2022-11-09T02:31:10.634Z,13.79
2022-11-09T02:36:07.136Z,13.76
2022-11-09T02:41:03.884Z,13.68
2022-11-09T02:46:00.183Z,13.73
2022-11-09T02:50:56.514Z,13.69
2022-11-09T02:55:52.878Z,13.61
2022-11-09T03:00:49.208Z,13.62
2022-11-09T03:05:45.567Z,13.57
2022-11-09T03:10:41.889Z,13.51
2022-11-09T03:15:38.513Z,13.57
2022-11-09T03:20:34.863Z,13.53
2022-11-09T03:25:31.335Z,13.44
2022-11-09T03:30:28.426Z,13.36
2022-11-09T03:35:24.971Z,13.35
2022-11-09T03:40:21.653Z,13.25
2022-11-09T03:45:17.965Z,13.21
2022-11-09T03:50:16.359Z,13.21
2022-11-09T03:55:14.319Z,13.14
2022-11-09T04:00:11.212Z,13.19
2022-11-09T04:05:08.430Z,13.15
2022-11-09T04:10:06.489Z,13.15
2022-11-09T04:15:02.964Z,12.99
2022-11-09T04:19:59.401Z,12.94
2022-11-09T04:24:55.726Z,12.89
2022-11-09T04:29:52.081Z,12.87
2022-11-09T04:34:48.411Z,13.04
2022-11-09T04:39:44.790Z,13.03
2022-11-09T04:44:41.091Z,13.00
2022-11-09T04:49:37.399Z,12.97
2022-11-09T04:54:33.896Z,13.03
2022-11-09T04:59:30.221Z,12.97
2022-11-09T05:04:26.525Z,12.98
2022-11-09T05:09:22.838Z,13.05
2022-11-09T05:14:19.164Z,13.05
2022-11-09T05:19:15.480Z,12.98
2022-11-09T05:24:11.834Z,13.05
2022-11-09T05:29:10.882Z,12.98
2022-11-09T05:34:07.890Z,12.95
2022-11-09T05:39:04.214Z,13.00
2022-11-09T05:44:00.532Z,12.94
2022-11-09T05:48:56.842Z,12.85
2022-11-09T05:53:53.157Z,12.95
2022-11-09T05:58:49.515Z,12.96
2022-11-09T06:03:46.082Z,12.93
2022-11-09T06:08:42.493Z,13.09
2022-11-09T06:13:39.040Z,13.09
2022-11-09T06:18:35.987Z,13.10
2022-11-09T06:23:33.292Z,13.07
2022-11-09T06:28:29.870Z,13.07
2022-11-09T06:33:26.565Z,13.06
2022-11-09T06:38:23.099Z,13.09
2022-11-09T06:43:19.778Z,12.94
2022-11-09T06:48:16.787Z,12.94
2022-11-09T06:53:15.464Z,12.91
2022-11-09T06:58:16.490Z,12.94
2022-11-09T07:03:17.544Z,12.94
2022-11-09T07:08:15.288Z,12.90
2022-11-09T07:13:12.219Z,12.89
2022-11-09T07:18:11.858Z,12.90
2022-11-09T07:23:08.307Z,12.92
2022-11-09T07:28:07.479Z,13.06
2022-11-09T07:33:11.184Z,13.10
2022-11-09T07:38:07.860Z,13.06
2022-11-09T07:43:05.936Z,13.08
2022-11-09T07:48:05.377Z,13.04
2022-11-09T07:53:02.318Z,13.14
2022-11-09T07:58:04.310Z,13.16
2022-11-09T08:03:01.279Z,13.22
2022-11-09T08:07:59.839Z,13.24
2022-11-09T08:12:57.803Z,13.29
2022-11-09T08:17:54.631Z,13.29
2022-11-09T08:22:50.993Z,13.31
2022-11-09T08:27:47.394Z,13.39
2022-11-09T08:32:44.910Z,13.43
2022-11-09T08:37:41.234Z,13.40
2022-11-09T08:42:37.570Z,13.44
2022-11-09T08:47:34.479Z,13.38
2022-11-09T08:52:31.568Z,13.39
2022-11-09T08:57:28.577Z,13.36
2022-11-09T09:02:25.076Z,13.31
2022-11-09T09:07:21.462Z,13.44
2022-11-09T09:12:18.796Z,13.45
2022-11-09T09:17:15.161Z,13.33
2022-11-09T09:22:11.477Z,13.36
2022-11-09T09:27:07.888Z,13.36
2022-11-09T09:32:04.615Z,13.25
2022-11-09T09:37:00.933Z,13.40
2022-11-09T09:42:04.867Z,13.27
2022-11-09T09:47:13.800Z,13.29
2022-11-09T09:52:24.178Z,13.41
2022-11-09T09:57:22.591Z,13.63
2022-11-09T10:02:31.470Z,13.62
2022-11-09T10:07:59.211Z,14.09
2022-11-09T10:13:13.064Z,14.19
2022-11-09T10:18:34.901Z,14.24
2022-11-09T10:23:46.474Z,14.58
2022-11-09T10:29:14.539Z,14.57
2022-11-09T10:34:14.238Z,14.45
2022-11-09T10:39:13.789Z,14.49
2022-11-09T10:44:17.702Z,14.17
2022-11-09T10:49:21.599Z,14.31
2022-11-09T10:54:23.756Z,14.27
2022-11-09T10:59:39.643Z,14.15
2022-11-09T11:04:36.004Z,14.28
2022-11-09T11:09:32.374Z,14.53
2022-11-09T11:14:33.997Z,14.58
2022-11-09T11:19:33.777Z,15.05
2022-11-09T11:24:59.282Z,15.19
2022-11-09T11:30:11.097Z,15.24
2022-11-09T11:35:17.287Z,14.70
2022-11-09T11:40:23.767Z,14.67
2022-11-09T11:45:40.562Z,14.73
2022-11-09T11:50:50.246Z,14.53
2022-11-09T11:56:04.790Z,14.68
2022-11-09T12:01:28.314Z,14.62
2022-11-09T12:06:54.339Z,14.51
2022-11-09T12:12:10.257Z,14.41
2022-11-09T12:17:52.304Z,14.41
2022-11-09T12:23:17.239Z,14.48
2022-11-09T12:28:22.822Z,14.59
2022-11-09T12:33:33.669Z,14.73
2022-11-09T12:38:50.944Z,14.68
2022-11-09T12:44:00.502Z,14.81
2022-11-09T12:49:00.225Z,14.53
2022-11-09T12:53:58.226Z,14.26
2022-11-09T12:59:22.417Z,14.19
2022-11-09T13:04:21.142Z,14.12
2022-11-09T13:09:24.415Z,14.21
2022-11-09T13:14:26.068Z,14.14
2022-11-09T13:19:42.331Z,14.47
2022-11-09T13:24:59.738Z,14.47
2022-11-09T13:29:56.905Z,14.44
2022-11-09T13:34:55.216Z,14.45
2022-11-09T13:39:51.629Z,14.40
2022-11-09T13:44:48.350Z,14.42
2022-11-09T13:49:49.544Z,14.42
2022-11-09T13:54:46.142Z,14.19
2022-11-09T13:59:49.774Z,14.12
2022-11-09T14:04:46.370Z,14.20
2022-11-09T14:09:49.041Z,14.15
2022-11-09T14:14:59.453Z,14.06
2022-11-09T14:20:24.335Z,14.00
2022-11-09T14:25:23.861Z,13.89
2022-11-09T14:30:23.013Z,13.90
2022-11-09T14:35:24.433Z,13.90
2022-11-09T14:40:32.182Z,13.91
2022-11-09T14:45:29.025Z,13.88
2022-11-09T14:50:29.033Z,13.77
2022-11-09T14:55:26.943Z,13.58
2022-11-09T15:00:30.886Z,13.48
2022-11-09T15:05:35.153Z,13.50
2022-11-09T15:10:32.618Z,13.36
2022-11-09T15:15:30.931Z,13.25
2022-11-09T15:20:31.586Z,13.20
2022-11-09T15:25:35.339Z,13.17
2022-11-09T15:30:45.491Z,13.26
2022-11-09T15:35:58.633Z,13.24
2022-11-09T15:40:55.135Z,13.17
2022-11-09T15:45:51.548Z,13.22
2022-11-09T15:50:48.272Z,13.22
2022-11-09T15:55:44.865Z,13.21
2022-11-09T16:00:41.932Z,13.21
2022-11-09T16:05:38.600Z,13.16
2022-11-09T16:10:37.717Z,13.12
2022-11-09T16:15:36.256Z,13.06
2022-11-09T16:20:32.617Z,12.86
2022-11-09T16:25:29.032Z,12.80
2022-11-09T16:30:25.469Z,12.67
2022-11-09T16:35:27.287Z,12.58
2022-11-09T16:40:24.765Z,12.46
2022-11-09T16:45:21.485Z,12.28
2022-11-09T16:50:17.915Z,12.23
2022-11-09T16:55:14.399Z,12.26
2022-11-09T17:00:12.243Z,12.24
2022-11-09T17:05:08.836Z,12.24
2022-11-09T17:10:05.406Z,12.16
2022-11-09T17:15:01.732Z,12.13
2022-11-09T17:19:58.172Z,12.16
2022-11-09T17:24:54.576Z,12.05
2022-11-09T17:29:51.286Z,11.95
2022-11-09T17:34:47.651Z,11.87
2022-11-09T17:39:43.998Z,11.72
2022-11-09T17:44:40.345Z,11.59
2022-11-09T17:49:36.690Z,11.50
2022-11-09T17:54:36.942Z,11.47
2022-11-09T17:59:33.911Z,11.47
2022-11-09T18:04:30.241Z,11.55
2022-11-09T18:09:40.878Z,11.58
2022-11-09T18:14:38.346Z,11.51
2022-11-09T18:19:35.794Z,11.44
2022-11-09T18:24:33.043Z,11.41
2022-11-09T18:29:29.420Z,11.26
2022-11-09T18:34:25.806Z,11.23
2022-11-09T18:39:22.267Z,11.21
2022-11-09T18:44:18.620Z,11.11
2022-11-09T18:49:15.155Z,11.09
2022-11-09T18:54:11.539Z,11.14
2022-11-09T18:59:10.873Z,11.09
2022-11-09T19:04:07.316Z,11.05
2022-11-09T19:09:22.439Z,10.95
2022-11-09T19:14:18.855Z,10.96
2022-11-09T19:19:15.861Z,10.99
2022-11-09T19:24:13.642Z,11.01
2022-11-09T19:29:11.585Z,10.96
2022-11-09T19:34:07.939Z,11.06
2022-11-09T19:39:04.657Z,11.11
2022-11-09T19:44:01.260Z,11.19
2022-11-09T19:48:58.147Z,11.22
2022-11-09T19:53:56.365Z,11.25
2022-11-09T19:58:55.319Z,11.25
2022-11-09T20:03:53.149Z,11.25
2022-11-09T20:08:51.236Z,11.29
2022-11-09T20:13:47.767Z,11.28
2022-11-09T20:18:44.205Z,11.27
2022-11-09T20:23:40.616Z,11.20
2022-11-09T20:28:37.491Z,11.18
2022-11-09T20:33:33.871Z,11.21
2022-11-09T20:38:30.418Z,11.20
2022-11-09T20:43:27.078Z,11.20
2022-11-09T20:48:51.627Z,11.16
2022-11-09T20:53:39.920Z,11.14
2022-11-09T20:58:36.287Z,11.11
2022-11-09T21:03:33.511Z,11.09
2022-11-09T21:08:30.282Z,11.06
2022-11-09T21:13:27.027Z,11.06
2022-11-09T21:18:23.752Z,11.02
2022-11-09T21:23:20.338Z,10.93
2022-11-09T21:28:35.559Z,10.90
2022-11-09T21:33:31.956Z,10.77
2022-11-09T21:38:28.315Z,10.75
2022-11-09T21:43:24.738Z,10.79
2022-11-09T21:48:21.376Z,10.83
2022-11-09T21:53:18.240Z,10.79
2022-11-09T21:58:14.824Z,10.79
2022-11-09T22:03:11.258Z,10.70
2022-11-09T22:08:07.607Z,10.57
2022-11-09T22:13:22.861Z,10.49
2022-11-09T22:18:38.001Z,10.38
2022-11-09T22:23:34.395Z,10.31
2022-11-09T22:28:32.259Z,10.20
2022-11-09T22:33:30.358Z,10.05
2022-11-09T22:38:27.305Z,9.96
2022-11-09T22:43:23.931Z,9.88
2022-11-09T22:48:20.481Z,9.82
2022-11-09T22:53:16.844Z,9.83
2022-11-09T22:58:13.185Z,9.87
2022-11-09T23:03:09.619Z,9.91
2022-11-09T23:08:06.123Z,9.96
2022-11-09T23:13:03.247Z,9.98
2022-11-09T23:18:18.438Z,10.01
2022-11-09T23:23:14.799Z,10.09
2022-11-09T23:28:12.815Z,10.10
2022-11-09T23:33:09.698Z,10.12
2022-11-09T23:38:06.739Z,10.16
2022-11-09T23:43:08.210Z,10.11
2022-11-09T23:48:05.807Z,10.10
2022-11-09T23:53:02.238Z,10.03
2022-11-09T23:58:01.164Z,9.96
